sensor_id;sensor_type;location;lat;lon;timestamp;P1;durP1;ratioP1;P2;durP2;ratioP2
30062;SDS011;16889;67.864;24.990;2023-07-29T00:00:03;6.45;;;4.38;;
30062;SDS011;16889;67.864;24.990;2023-07-29T00:04:51;4.88;;;3.80;;
30062;SDS011;16889;67.864;24.990;2023-07-29T00:09:37;5.00;;;3.60;;
30062;SDS011;16889;67.864;24.990;2023-07-29T00:14:23;4.18;;;3.75;;
30062;SDS011;16889;67.864;24.990;2023-07-29T00:19:09;4.22;;;3.83;;
30062;SDS011;16889;67.864;24.990;2023-07-29T00:23:55;7.75;;;3.10;;
30062;SDS011;16889;67.864;24.990;2023-07-29T00:28:42;4.72;;;3.83;;
30062;SDS011;16889;67.864;24.990;2023-07-29T00:33:28;5.45;;;4.13;;
30062;SDS011;16889;67.864;24.990;2023-07-29T00:38:14;9.25;;;4.40;;
30062;SDS011;16889;67.864;24.990;2023-07-29T00:43:00;4.35;;;3.72;;
30062;SDS011;16889;67.864;24.990;2023-07-29T00:47:46;4.65;;;4.13;;
30062;SDS011;16889;67.864;24.990;2023-07-29T00:52:33;6.10;;;4.43;;
30062;SDS011;16889;67.864;24.990;2023-07-29T00:57:19;6.18;;;4.13;;
30062;SDS011;16889;67.864;24.990;2023-07-29T01:02:06;5.65;;;4.15;;
30062;SDS011;16889;67.864;24.990;2023-07-29T01:12:12;6.72;;;4.30;;
30062;SDS011;16889;67.864;24.990;2023-07-29T01:17:07;4.78;;;4.18;;
30062;SDS011;16889;67.864;24.990;2023-07-29T01:21:58;7.38;;;4.18;;
30062;SDS011;16889;67.864;24.990;2023-07-29T01:26:46;4.43;;;3.90;;
30062;SDS011;16889;67.864;24.990;2023-07-29T01:31:37;4.70;;;4.07;;
30062;SDS011;16889;67.864;24.990;2023-07-29T01:36:29;5.78;;;4.50;;
30062;SDS011;16889;67.864;24.990;2023-07-29T01:41:18;5.45;;;4.30;;
30062;SDS011;16889;67.864;24.990;2023-07-29T01:46:06;5.68;;;4.65;;
30062;SDS011;16889;67.864;24.990;2023-07-29T01:50:52;7.05;;;4.55;;
30062;SDS011;16889;67.864;24.990;2023-07-29T01:55:39;7.60;;;4.07;;
30062;SDS011;16889;67.864;24.990;2023-07-29T02:00:25;4.25;;;3.83;;
30062;SDS011;16889;67.864;24.990;2023-07-29T02:05:11;4.78;;;4.28;;
30062;SDS011;16889;67.864;24.990;2023-07-29T02:09:57;6.03;;;4.32;;
30062;SDS011;16889;67.864;24.990;2023-07-29T02:14:43;5.97;;;4.47;;
30062;SDS011;16889;67.864;24.990;2023-07-29T02:19:29;4.45;;;3.97;;
30062;SDS011;16889;67.864;24.990;2023-07-29T02:24:15;4.57;;;4.18;;
30062;SDS011;16889;67.864;24.990;2023-07-29T02:29:01;4.50;;;3.83;;
30062;SDS011;16889;67.864;24.990;2023-07-29T02:33:47;4.60;;;3.70;;
30062;SDS011;16889;67.864;24.990;2023-07-29T02:38:34;4.03;;;3.63;;
30062;SDS011;16889;67.864;24.990;2023-07-29T02:43:20;3.58;;;3.22;;
30062;SDS011;16889;67.864;24.990;2023-07-29T02:48:06;5.45;;;3.80;;
30062;SDS011;16889;67.864;24.990;2023-07-29T02:52:52;4.68;;;3.75;;
30062;SDS011;16889;67.864;24.990;2023-07-29T02:57:38;5.68;;;3.75;;
30062;SDS011;16889;67.864;24.990;2023-07-29T03:02:24;4.50;;;3.67;;
30062;SDS011;16889;67.864;24.990;2023-07-29T03:07:10;4.22;;;3.78;;
30062;SDS011;16889;67.864;24.990;2023-07-29T03:11:56;6.25;;;3.75;;
30062;SDS011;16889;67.864;24.990;2023-07-29T03:16:42;4.65;;;3.63;;
30062;SDS011;16889;67.864;24.990;2023-07-29T03:21:28;5.13;;;3.65;;
30062;SDS011;16889;67.864;24.990;2023-07-29T03:26:14;5.05;;;3.67;;
30062;SDS011;16889;67.864;24.990;2023-07-29T03:31:00;4.28;;;3.40;;
30062;SDS011;16889;67.864;24.990;2023-07-29T03:35:47;4.72;;;3.50;;
30062;SDS011;16889;67.864;24.990;2023-07-29T03:40:33;8.73;;;4.00;;
30062;SDS011;16889;67.864;24.990;2023-07-29T03:45:22;4.35;;;3.50;;
30062;SDS011;16889;67.864;24.990;2023-07-29T03:50:08;4.72;;;3.83;;
30062;SDS011;16889;67.864;24.990;2023-07-29T03:54:54;4.43;;;3.65;;
30062;SDS011;16889;67.864;24.990;2023-07-29T03:59:41;5.13;;;3.55;;
30062;SDS011;16889;67.864;24.990;2023-07-29T04:04:26;5.90;;;3.60;;
30062;SDS011;16889;67.864;24.990;2023-07-29T04:09:12;5.03;;;3.88;;
30062;SDS011;16889;67.864;24.990;2023-07-29T04:13:59;5.35;;;3.95;;
30062;SDS011;16889;67.864;24.990;2023-07-29T04:18:45;4.90;;;4.10;;
30062;SDS011;16889;67.864;24.990;2023-07-29T04:23:31;5.15;;;3.95;;
30062;SDS011;16889;67.864;24.990;2023-07-29T04:28:17;6.00;;;4.07;;
30062;SDS011;16889;67.864;24.990;2023-07-29T04:33:03;5.93;;;4.15;;
30062;SDS011;16889;67.864;24.990;2023-07-29T04:37:49;6.30;;;4.32;;
30062;SDS011;16889;67.864;24.990;2023-07-29T04:42:36;6.55;;;4.32;;
30062;SDS011;16889;67.864;24.990;2023-07-29T04:52:08;5.50;;;4.05;;
30062;SDS011;16889;67.864;24.990;2023-07-29T04:56:54;5.40;;;4.65;;
30062;SDS011;16889;67.864;24.990;2023-07-29T05:01:40;5.57;;;3.92;;
30062;SDS011;16889;67.864;24.990;2023-07-29T05:06:28;5.30;;;4.63;;
30062;SDS011;16889;67.864;24.990;2023-07-29T05:11:14;7.78;;;4.80;;
30062;SDS011;16889;67.864;24.990;2023-07-29T05:16:00;5.63;;;4.68;;
30062;SDS011;16889;67.864;24.990;2023-07-29T05:20:46;7.13;;;4.85;;
30062;SDS011;16889;67.864;24.990;2023-07-29T05:25:32;5.63;;;4.93;;
30062;SDS011;16889;67.864;24.990;2023-07-29T05:30:20;7.05;;;5.10;;
30062;SDS011;16889;67.864;24.990;2023-07-29T05:35:06;5.93;;;5.22;;
30062;SDS011;16889;67.864;24.990;2023-07-29T05:39:52;6.03;;;4.97;;
30062;SDS011;16889;67.864;24.990;2023-07-29T05:44:38;6.22;;;5.22;;
30062;SDS011;16889;67.864;24.990;2023-07-29T05:49:24;6.75;;;5.18;;
30062;SDS011;16889;67.864;24.990;2023-07-29T05:54:10;6.93;;;5.60;;
30062;SDS011;16889;67.864;24.990;2023-07-29T05:58:56;5.63;;;5.00;;
30062;SDS011;16889;67.864;24.990;2023-07-29T06:03:42;8.35;;;4.82;;
30062;SDS011;16889;67.864;24.990;2023-07-29T06:08:28;5.55;;;5.00;;
30062;SDS011;16889;67.864;24.990;2023-07-29T06:13:14;7.47;;;5.18;;
30062;SDS011;16889;67.864;24.990;2023-07-29T06:18:00;6.78;;;5.13;;
30062;SDS011;16889;67.864;24.990;2023-07-29T06:22:46;5.65;;;5.00;;
30062;SDS011;16889;67.864;24.990;2023-07-29T06:27:32;7.10;;;5.35;;
30062;SDS011;16889;67.864;24.990;2023-07-29T06:32:18;8.73;;;5.68;;
30062;SDS011;16889;67.864;24.990;2023-07-29T06:37:04;8.85;;;6.13;;
30062;SDS011;16889;67.864;24.990;2023-07-29T06:41:50;8.63;;;6.10;;
30062;SDS011;16889;67.864;24.990;2023-07-29T06:46:36;9.52;;;6.72;;
30062;SDS011;16889;67.864;24.990;2023-07-29T06:51:22;10.43;;;6.60;;
30062;SDS011;16889;67.864;24.990;2023-07-29T06:56:08;8.75;;;6.93;;
30062;SDS011;16889;67.864;24.990;2023-07-29T07:00:54;12.57;;;6.93;;
30062;SDS011;16889;67.864;24.990;2023-07-29T07:05:40;9.80;;;7.07;;
30062;SDS011;16889;67.864;24.990;2023-07-29T07:10:26;9.63;;;7.18;;
30062;SDS011;16889;67.864;24.990;2023-07-29T07:15:12;10.77;;;7.72;;
30062;SDS011;16889;67.864;24.990;2023-07-29T07:19:58;9.43;;;8.05;;
30062;SDS011;16889;67.864;24.990;2023-07-29T07:24:44;9.75;;;8.45;;
30062;SDS011;16889;67.864;24.990;2023-07-29T07:29:30;10.27;;;7.95;;
30062;SDS011;16889;67.864;24.990;2023-07-29T07:34:16;9.73;;;8.45;;
30062;SDS011;16889;67.864;24.990;2023-07-29T07:39:02;9.73;;;8.25;;
30062;SDS011;16889;67.864;24.990;2023-07-29T07:43:48;12.07;;;8.15;;
30062;SDS011;16889;67.864;24.990;2023-07-29T07:48:33;11.98;;;7.70;;
30062;SDS011;16889;67.864;24.990;2023-07-29T07:53:19;10.13;;;8.85;;
30062;SDS011;16889;67.864;24.990;2023-07-29T07:58:05;11.57;;;8.27;;
30062;SDS011;16889;67.864;24.990;2023-07-29T08:02:51;13.80;;;9.15;;
30062;SDS011;16889;67.864;24.990;2023-07-29T08:07:37;13.13;;;8.60;;
30062;SDS011;16889;67.864;24.990;2023-07-29T08:12:23;9.68;;;8.68;;
30062;SDS011;16889;67.864;24.990;2023-07-29T08:17:09;10.35;;;9.23;;
30062;SDS011;16889;67.864;24.990;2023-07-29T08:21:55;10.07;;;8.98;;
30062;SDS011;16889;67.864;24.990;2023-07-29T08:26:41;13.90;;;9.77;;
30062;SDS011;16889;67.864;24.990;2023-07-29T08:31:27;12.07;;;9.88;;
30062;SDS011;16889;67.864;24.990;2023-07-29T08:36:13;13.60;;;9.98;;
30062;SDS011;16889;67.864;24.990;2023-07-29T08:46:00;11.60;;;10.10;;
30062;SDS011;16889;67.864;24.990;2023-07-29T08:50:46;13.00;;;9.38;;
30062;SDS011;16889;67.864;24.990;2023-07-29T08:55:32;15.60;;;10.15;;
30062;SDS011;16889;67.864;24.990;2023-07-29T09:00:19;12.73;;;10.20;;
30062;SDS011;16889;67.864;24.990;2023-07-29T09:05:06;12.35;;;11.05;;
30062;SDS011;16889;67.864;24.990;2023-07-29T09:09:53;11.60;;;10.40;;
30062;SDS011;16889;67.864;24.990;2023-07-29T09:14:39;13.43;;;11.63;;
30062;SDS011;16889;67.864;24.990;2023-07-29T09:19:25;11.90;;;10.70;;
30062;SDS011;16889;67.864;24.990;2023-07-29T09:24:12;14.80;;;10.63;;
30062;SDS011;16889;67.864;24.990;2023-07-29T09:29:03;15.90;;;10.88;;
30062;SDS011;16889;67.864;24.990;2023-07-29T09:33:49;13.25;;;9.93;;
30062;SDS011;16889;67.864;24.990;2023-07-29T09:38:42;12.98;;;9.55;;
30062;SDS011;16889;67.864;24.990;2023-07-29T09:43:29;10.63;;;9.53;;
30062;SDS011;16889;67.864;24.990;2023-07-29T09:48:16;15.48;;;9.70;;
30062;SDS011;16889;67.864;24.990;2023-07-29T09:53:07;12.50;;;9.13;;
30062;SDS011;16889;67.864;24.990;2023-07-29T09:57:55;10.55;;;9.20;;
30062;SDS011;16889;67.864;24.990;2023-07-29T10:02:47;9.63;;;8.55;;
30062;SDS011;16889;67.864;24.990;2023-07-29T10:07:37;9.70;;;8.05;;
30062;SDS011;16889;67.864;24.990;2023-07-29T10:12:24;11.00;;;8.60;;
30062;SDS011;16889;67.864;24.990;2023-07-29T10:17:11;12.68;;;8.32;;
30062;SDS011;16889;67.864;24.990;2023-07-29T10:21:59;14.70;;;9.10;;
30062;SDS011;16889;67.864;24.990;2023-07-29T10:26:48;8.48;;;7.65;;
30062;SDS011;16889;67.864;24.990;2023-07-29T10:31:35;10.63;;;7.20;;
30062;SDS011;16889;67.864;24.990;2023-07-29T10:41:09;12.90;;;7.72;;
30062;SDS011;16889;67.864;24.990;2023-07-29T10:45:55;15.77;;;8.18;;
30062;SDS011;16889;67.864;24.990;2023-07-29T10:50:42;11.43;;;7.72;;
30062;SDS011;16889;67.864;24.990;2023-07-29T10:55:29;10.35;;;7.05;;
30062;SDS011;16889;67.864;24.990;2023-07-29T11:00:21;8.55;;;6.57;;
30062;SDS011;16889;67.864;24.990;2023-07-29T11:05:17;7.57;;;6.40;;
30062;SDS011;16889;67.864;24.990;2023-07-29T11:10:04;7.82;;;6.85;;
30062;SDS011;16889;67.864;24.990;2023-07-29T11:14:50;7.00;;;6.30;;
30062;SDS011;16889;67.864;24.990;2023-07-29T11:19:36;6.57;;;5.97;;
30062;SDS011;16889;67.864;24.990;2023-07-29T11:24:24;7.63;;;5.10;;
30062;SDS011;16889;67.864;24.990;2023-07-29T11:29:10;8.13;;;5.30;;
30062;SDS011;16889;67.864;24.990;2023-07-29T11:33:56;5.80;;;4.50;;
30062;SDS011;16889;67.864;24.990;2023-07-29T11:38:42;5.80;;;5.20;;
30062;SDS011;16889;67.864;24.990;2023-07-29T11:43:28;6.10;;;4.30;;
30062;SDS011;16889;67.864;24.990;2023-07-29T11:48:14;5.18;;;4.18;;
30062;SDS011;16889;67.864;24.990;2023-07-29T11:53:00;3.80;;;3.28;;
30062;SDS011;16889;67.864;24.990;2023-07-29T11:57:46;3.95;;;3.50;;
30062;SDS011;16889;67.864;24.990;2023-07-29T12:02:37;5.30;;;3.50;;
30062;SDS011;16889;67.864;24.990;2023-07-29T12:07:24;4.80;;;3.58;;
30062;SDS011;16889;67.864;24.990;2023-07-29T12:12:11;5.20;;;3.42;;
30062;SDS011;16889;67.864;24.990;2023-07-29T12:16:59;4.93;;;3.53;;
30062;SDS011;16889;67.864;24.990;2023-07-29T12:21:50;6.90;;;3.28;;
30062;SDS011;16889;67.864;24.990;2023-07-29T12:26:36;7.75;;;3.42;;
30062;SDS011;16889;67.864;24.990;2023-07-29T12:31:30;4.57;;;3.47;;
30062;SDS011;16889;67.864;24.990;2023-07-29T12:36:17;4.28;;;3.67;;
30062;SDS011;16889;67.864;24.990;2023-07-29T12:41:03;9.23;;;3.55;;
30062;SDS011;16889;67.864;24.990;2023-07-29T12:45:49;5.13;;;3.60;;
30062;SDS011;16889;67.864;24.990;2023-07-29T12:50:36;7.45;;;3.55;;
30062;SDS011;16889;67.864;24.990;2023-07-29T12:55:22;3.58;;;3.28;;
30062;SDS011;16889;67.864;24.990;2023-07-29T13:00:09;5.55;;;3.38;;
30062;SDS011;16889;67.864;24.990;2023-07-29T13:04:58;4.50;;;3.60;;
30062;SDS011;16889;67.864;24.990;2023-07-29T13:09:44;3.90;;;3.50;;
30062;SDS011;16889;67.864;24.990;2023-07-29T13:14:30;4.65;;;3.55;;
30062;SDS011;16889;67.864;24.990;2023-07-29T13:19:15;5.68;;;3.70;;
30062;SDS011;16889;67.864;24.990;2023-07-29T13:24:03;9.68;;;3.40;;
30062;SDS011;16889;67.864;24.990;2023-07-29T13:28:49;3.85;;;3.45;;
30062;SDS011;16889;67.864;24.990;2023-07-29T13:33:35;5.97;;;3.58;;
30062;SDS011;16889;67.864;24.990;2023-07-29T13:38:21;3.47;;;2.90;;
30062;SDS011;16889;67.864;24.990;2023-07-29T13:43:07;3.45;;;2.85;;
30062;SDS011;16889;67.864;24.990;2023-07-29T13:47:53;3.20;;;2.90;;
30062;SDS011;16889;67.864;24.990;2023-07-29T13:52:41;2.97;;;2.67;;
30062;SDS011;16889;67.864;24.990;2023-07-29T13:57:27;2.95;;;2.40;;
30062;SDS011;16889;67.864;24.990;2023-07-29T14:02:13;4.28;;;2.63;;
30062;SDS011;16889;67.864;24.990;2023-07-29T14:06:59;4.10;;;2.25;;
30062;SDS011;16889;67.864;24.990;2023-07-29T14:11:46;2.30;;;2.10;;
30062;SDS011;16889;67.864;24.990;2023-07-29T14:16:32;2.78;;;2.00;;
30062;SDS011;16889;67.864;24.990;2023-07-29T14:21:18;2.25;;;1.80;;
30062;SDS011;16889;67.864;24.990;2023-07-29T14:26:04;2.60;;;1.88;;
30062;SDS011;16889;67.864;24.990;2023-07-29T14:30:50;2.55;;;1.90;;
30062;SDS011;16889;67.864;24.990;2023-07-29T14:35:36;1.83;;;1.42;;
30062;SDS011;16889;67.864;24.990;2023-07-29T14:40:22;3.38;;;1.92;;
30062;SDS011;16889;67.864;24.990;2023-07-29T14:45:08;2.53;;;1.52;;
30062;SDS011;16889;67.864;24.990;2023-07-29T14:49:54;1.90;;;1.67;;
30062;SDS011;16889;67.864;24.990;2023-07-29T14:54:40;2.67;;;1.80;;
30062;SDS011;16889;67.864;24.990;2023-07-29T14:59:27;1.77;;;1.50;;
30062;SDS011;16889;67.864;24.990;2023-07-29T15:04:14;1.67;;;1.58;;
30062;SDS011;16889;67.864;24.990;2023-07-29T15:09:00;4.18;;;1.60;;
30062;SDS011;16889;67.864;24.990;2023-07-29T15:13:46;3.92;;;1.83;;
30062;SDS011;16889;67.864;24.990;2023-07-29T15:18:32;2.05;;;1.70;;
30062;SDS011;16889;67.864;24.990;2023-07-29T15:23:18;2.08;;;1.50;;
30062;SDS011;16889;67.864;24.990;2023-07-29T15:28:04;5.35;;;1.75;;
30062;SDS011;16889;67.864;24.990;2023-07-29T15:32:50;1.73;;;1.42;;
30062;SDS011;16889;67.864;24.990;2023-07-29T15:37:36;5.10;;;1.50;;
30062;SDS011;16889;67.864;24.990;2023-07-29T15:42:23;3.58;;;1.25;;
30062;SDS011;16889;67.864;24.990;2023-07-29T15:47:10;3.05;;;1.42;;
30062;SDS011;16889;67.864;24.990;2023-07-29T15:52:01;1.67;;;1.40;;
30062;SDS011;16889;67.864;24.990;2023-07-29T15:56:47;3.90;;;1.15;;
30062;SDS011;16889;67.864;24.990;2023-07-29T16:01:33;3.05;;;1.20;;
30062;SDS011;16889;67.864;24.990;2023-07-29T16:06:19;1.52;;;1.27;;
30062;SDS011;16889;67.864;24.990;2023-07-29T16:11:05;1.30;;;1.08;;
30062;SDS011;16889;67.864;24.990;2023-07-29T16:15:51;1.10;;;1.00;;
30062;SDS011;16889;67.864;24.990;2023-07-29T16:20:37;1.25;;;0.80;;
30062;SDS011;16889;67.864;24.990;2023-07-29T16:25:23;2.05;;;0.80;;
30062;SDS011;16889;67.864;24.990;2023-07-29T16:30:09;2.42;;;0.85;;
30062;SDS011;16889;67.864;24.990;2023-07-29T16:34:55;1.17;;;0.70;;
30062;SDS011;16889;67.864;24.990;2023-07-29T16:39:41;0.70;;;0.70;;
30062;SDS011;16889;67.864;24.990;2023-07-29T16:44:28;1.83;;;0.60;;
30062;SDS011;16889;67.864;24.990;2023-07-29T16:49:14;1.05;;;0.60;;
30062;SDS011;16889;67.864;24.990;2023-07-29T16:54:00;0.90;;;0.57;;
30062;SDS011;16889;67.864;24.990;2023-07-29T16:58:46;0.63;;;0.60;;
30062;SDS011;16889;67.864;24.990;2023-07-29T17:03:32;1.20;;;0.50;;
30062;SDS011;16889;67.864;24.990;2023-07-29T17:08:18;1.25;;;0.50;;
30062;SDS011;16889;67.864;24.990;2023-07-29T17:13:04;1.15;;;0.68;;
30062;SDS011;16889;67.864;24.990;2023-07-29T17:17:50;0.60;;;0.55;;
30062;SDS011;16889;67.864;24.990;2023-07-29T17:22:37;6.07;;;0.80;;
30062;SDS011;16889;67.864;24.990;2023-07-29T17:27:23;3.38;;;0.80;;
30062;SDS011;16889;67.864;24.990;2023-07-29T17:32:09;1.25;;;0.80;;
30062;SDS011;16889;67.864;24.990;2023-07-29T17:36:55;0.90;;;0.65;;
30062;SDS011;16889;67.864;24.990;2023-07-29T17:41:41;0.60;;;0.60;;
30062;SDS011;16889;67.864;24.990;2023-07-29T17:46:26;0.90;;;0.70;;
30062;SDS011;16889;67.864;24.990;2023-07-29T17:51:13;2.05;;;0.73;;
30062;SDS011;16889;67.864;24.990;2023-07-29T17:55:59;0.85;;;0.85;;
30062;SDS011;16889;67.864;24.990;2023-07-29T18:00:45;1.00;;;0.80;;
30062;SDS011;16889;67.864;24.990;2023-07-29T18:05:31;0.82;;;0.70;;
30062;SDS011;16889;67.864;24.990;2023-07-29T18:10:16;0.68;;;0.52;;
30062;SDS011;16889;67.864;24.990;2023-07-29T18:15:03;0.50;;;0.45;;
30062;SDS011;16889;67.864;24.990;2023-07-29T18:19:50;2.05;;;0.50;;
30062;SDS011;16889;67.864;24.990;2023-07-29T18:24:40;0.40;;;0.40;;
30062;SDS011;16889;67.864;24.990;2023-07-29T18:29:32;0.82;;;0.60;;
30062;SDS011;16889;67.864;24.990;2023-07-29T18:34:18;1.60;;;0.55;;
30062;SDS011;16889;67.864;24.990;2023-07-29T18:39:04;0.70;;;0.70;;
30062;SDS011;16889;67.864;24.990;2023-07-29T18:43:51;1.05;;;0.70;;
30062;SDS011;16889;67.864;24.990;2023-07-29T18:48:42;0.90;;;0.68;;
30062;SDS011;16889;67.864;24.990;2023-07-29T18:53:28;2.40;;;0.60;;
30062;SDS011;16889;67.864;24.990;2023-07-29T18:58:14;2.65;;;0.88;;
30062;SDS011;16889;67.864;24.990;2023-07-29T19:03:00;0.73;;;0.73;;
30062;SDS011;16889;67.864;24.990;2023-07-29T19:07:46;0.80;;;0.80;;
30062;SDS011;16889;67.864;24.990;2023-07-29T19:12:32;2.70;;;0.93;;
30062;SDS011;16889;67.864;24.990;2023-07-29T19:17:19;1.58;;;0.80;;
30062;SDS011;16889;67.864;24.990;2023-07-29T19:22:05;0.90;;;0.90;;
30062;SDS011;16889;67.864;24.990;2023-07-29T19:26:51;1.27;;;0.85;;
30062;SDS011;16889;67.864;24.990;2023-07-29T19:31:37;1.10;;;1.00;;
30062;SDS011;16889;67.864;24.990;2023-07-29T19:36:23;0.90;;;0.80;;
30062;SDS011;16889;67.864;24.990;2023-07-29T19:41:09;1.40;;;1.00;;
30062;SDS011;16889;67.864;24.990;2023-07-29T19:45:55;1.60;;;1.00;;
30062;SDS011;16889;67.864;24.990;2023-07-29T19:50:41;3.00;;;0.90;;
30062;SDS011;16889;67.864;24.990;2023-07-29T19:55:28;4.10;;;1.00;;
30062;SDS011;16889;67.864;24.990;2023-07-29T20:00:16;2.80;;;1.20;;
30062;SDS011;16889;67.864;24.990;2023-07-29T20:05:02;2.20;;;1.10;;
30062;SDS011;16889;67.864;24.990;2023-07-29T20:09:48;1.63;;;1.27;;
30062;SDS011;16889;67.864;24.990;2023-07-29T20:14:34;1.50;;;1.33;;
30062;SDS011;16889;67.864;24.990;2023-07-29T20:19:19;1.52;;;1.40;;
30062;SDS011;16889;67.864;24.990;2023-07-29T20:24:05;1.63;;;1.40;;
30062;SDS011;16889;67.864;24.990;2023-07-29T20:28:52;3.58;;;1.60;;
30062;SDS011;16889;67.864;24.990;2023-07-29T20:33:38;1.60;;;1.50;;
30062;SDS011;16889;67.864;24.990;2023-07-29T20:38:25;3.72;;;1.30;;
30062;SDS011;16889;67.864;24.990;2023-07-29T20:43:11;2.55;;;1.60;;
30062;SDS011;16889;67.864;24.990;2023-07-29T20:47:58;2.67;;;1.77;;
30062;SDS011;16889;67.864;24.990;2023-07-29T20:52:43;2.17;;;1.80;;
30062;SDS011;16889;67.864;24.990;2023-07-29T20:57:29;3.83;;;1.58;;
30062;SDS011;16889;67.864;24.990;2023-07-29T21:02:15;5.60;;;1.80;;
30062;SDS011;16889;67.864;24.990;2023-07-29T21:07:01;3.90;;;1.90;;
30062;SDS011;16889;67.864;24.990;2023-07-29T21:11:47;2.33;;;1.70;;
30062;SDS011;16889;67.864;24.990;2023-07-29T21:16:33;1.85;;;1.70;;
30062;SDS011;16889;67.864;24.990;2023-07-29T21:21:19;2.53;;;2.08;;
30062;SDS011;16889;67.864;24.990;2023-07-29T21:26:05;2.35;;;1.67;;
30062;SDS011;16889;67.864;24.990;2023-07-29T21:30:51;2.53;;;1.83;;
30062;SDS011;16889;67.864;24.990;2023-07-29T21:35:37;3.67;;;1.50;;
30062;SDS011;16889;67.864;24.990;2023-07-29T21:40:23;3.55;;;1.73;;
30062;SDS011;16889;67.864;24.990;2023-07-29T21:45:09;1.98;;;1.80;;
30062;SDS011;16889;67.864;24.990;2023-07-29T21:49:56;2.53;;;1.70;;
30062;SDS011;16889;67.864;24.990;2023-07-29T21:54:41;2.75;;;1.60;;
30062;SDS011;16889;67.864;24.990;2023-07-29T21:59:27;4.72;;;1.70;;
30062;SDS011;16889;67.864;24.990;2023-07-29T22:04:13;2.53;;;1.70;;
30062;SDS011;16889;67.864;24.990;2023-07-29T22:08:59;3.03;;;2.00;;
30062;SDS011;16889;67.864;24.990;2023-07-29T22:13:45;2.20;;;2.00;;
30062;SDS011;16889;67.864;24.990;2023-07-29T22:18:31;3.28;;;2.00;;
30062;SDS011;16889;67.864;24.990;2023-07-29T22:23:17;2.17;;;1.98;;
30062;SDS011;16889;67.864;24.990;2023-07-29T22:28:03;2.45;;;2.00;;
30062;SDS011;16889;67.864;24.990;2023-07-29T22:32:49;3.25;;;2.13;;
30062;SDS011;16889;67.864;24.990;2023-07-29T22:37:35;2.20;;;2.00;;
30062;SDS011;16889;67.864;24.990;2023-07-29T22:42:21;4.65;;;2.53;;
30062;SDS011;16889;67.864;24.990;2023-07-29T22:47:06;8.27;;;2.80;;
30062;SDS011;16889;67.864;24.990;2023-07-29T22:51:52;3.15;;;2.85;;
30062;SDS011;16889;67.864;24.990;2023-07-29T22:56:38;5.25;;;3.03;;
30062;SDS011;16889;67.864;24.990;2023-07-29T23:01:24;3.47;;;2.95;;
30062;SDS011;16889;67.864;24.990;2023-07-29T23:06:10;4.07;;;2.90;;
30062;SDS011;16889;67.864;24.990;2023-07-29T23:11:01;7.70;;;2.72;;
30062;SDS011;16889;67.864;24.990;2023-07-29T23:15:48;5.47;;;3.40;;
30062;SDS011;16889;67.864;24.990;2023-07-29T23:25:22;5.15;;;3.05;;
30062;SDS011;16889;67.864;24.990;2023-07-29T23:30:08;4.97;;;3.08;;
30062;SDS011;16889;67.864;24.990;2023-07-29T23:34:54;5.38;;;3.00;;
30062;SDS011;16889;67.864;24.990;2023-07-29T23:39:40;3.90;;;2.88;;
30062;SDS011;16889;67.864;24.990;2023-07-29T23:44:26;2.88;;;2.60;;
30062;SDS011;16889;67.864;24.990;2023-07-29T23:49:12;3.45;;;3.03;;
30062;SDS011;16889;67.864;24.990;2023-07-29T23:53:58;3.35;;;3.05;;
30062;SDS011;16889;67.864;24.990;2023-07-29T23:58:44;4.45;;;3.10;;
